sensor_id;sensor_type;location;lat;lon;timestamp;temperature;humidity
3794;DHT22;1912;51.358;12.282;2023-12-07T06:46:36;2.00;1.00
3794;DHT22;1912;51.358;12.282;2023-12-07T06:49:02;1.90;1.00
3794;DHT22;1912;51.358;12.282;2023-12-07T06:51:27;1.90;1.00
3794;DHT22;1912;51.358;12.282;2023-12-07T06:53:53;1.90;1.00
3794;DHT22;1912;51.358;12.282;2023-12-07T06:56:19;1.90;1.00
3794;DHT22;1912;51.358;12.282;2023-12-07T06:58:44;1.90;1.00
3794;DHT22;1912;51.358;12.282;2023-12-07T07:01:10;1.90;1.00
3794;DHT22;1912;51.358;12.282;2023-12-07T07:03:38;1.90;1.00
3794;DHT22;1912;51.358;12.282;2023-12-07T07:06:04;1.90;1.00
3794;DHT22;1912;51.358;12.282;2023-12-07T07:08:30;1.90;1.00
3794;DHT22;1912;51.358;12.282;2023-12-07T07:10:56;1.90;1.00
3794;DHT22;1912;51.358;12.282;2023-12-07T07:13:22;1.90;1.00
3794;DHT22;1912;51.358;12.282;2023-12-07T07:15:47;2.00;1.00
3794;DHT22;1912;51.358;12.282;2023-12-07T07:18:13;1.90;1.00
3794;DHT22;1912;51.358;12.282;2023-12-07T07:20:39;1.90;1.00
3794;DHT22;1912;51.358;12.282;2023-12-07T07:23:05;2.00;1.00
3794;DHT22;1912;51.358;12.282;2023-12-07T07:25:33;2.00;1.00
3794;DHT22;1912;51.358;12.282;2023-12-07T07:27:58;2.00;1.00
3794;DHT22;1912;51.358;12.282;2023-12-07T07:30:24;2.00;1.00
3794;DHT22;1912;51.358;12.282;2023-12-07T07:32:50;2.00;1.00
3794;DHT22;1912;51.358;12.282;2023-12-07T07:35:16;2.00;1.00
3794;DHT22;1912;51.358;12.282;2023-12-07T07:37:41;2.00;1.00
3794;DHT22;1912;51.358;12.282;2023-12-07T07:40:09;2.00;1.00
3794;DHT22;1912;51.358;12.282;2023-12-07T07:42:40;2.00;1.00
3794;DHT22;1912;51.358;12.282;2023-12-07T07:45:07;2.00;1.00
3794;DHT22;1912;51.358;12.282;2023-12-07T07:47:33;2.00;1.00
3794;DHT22;1912;51.358;12.282;2023-12-07T07:49:59;2.00;1.00
3794;DHT22;1912;51.358;12.282;2023-12-07T07:52:30;2.00;1.00
3794;DHT22;1912;51.358;12.282;2023-12-07T07:54:56;2.00;1.00
3794;DHT22;1912;51.358;12.282;2023-12-07T07:57:22;2.00;1.00
3794;DHT22;1912;51.358;12.282;2023-12-07T07:59:47;2.00;1.00
3794;DHT22;1912;51.358;12.282;2023-12-07T08:02:13;2.00;1.00
3794;DHT22;1912;51.358;12.282;2023-12-07T08:04:38;2.00;1.00
3794;DHT22;1912;51.358;12.282;2023-12-07T08:07:04;2.00;1.00
3794;DHT22;1912;51.358;12.282;2023-12-07T08:09:30;2.10;1.00
3794;DHT22;1912;51.358;12.282;2023-12-07T08:11:55;2.10;1.00
3794;DHT22;1912;51.358;12.282;2023-12-07T08:14:21;2.10;1.00
3794;DHT22;1912;51.358;12.282;2023-12-07T08:16:47;2.10;1.00
3794;DHT22;1912;51.358;12.282;2023-12-07T08:19:13;2.10;1.00
3794;DHT22;1912;51.358;12.282;2023-12-07T08:21:38;2.10;1.00
3794;DHT22;1912;51.358;12.282;2023-12-07T08:24:04;2.10;1.00
3794;DHT22;1912;51.358;12.282;2023-12-07T08:26:33;2.10;1.00
3794;DHT22;1912;51.358;12.282;2023-12-07T08:28:59;2.10;1.00
3794;DHT22;1912;51.358;12.282;2023-12-07T08:31:25;2.10;1.00
3794;DHT22;1912;51.358;12.282;2023-12-07T08:33:51;2.10;1.00
3794;DHT22;1912;51.358;12.282;2023-12-07T08:36:16;2.10;1.00
3794;DHT22;1912;51.358;12.282;2023-12-07T08:38:42;2.10;1.00
3794;DHT22;1912;51.358;12.282;2023-12-07T08:41:08;2.10;1.00
3794;DHT22;1912;51.358;12.282;2023-12-07T08:43:34;2.20;1.00
3794;DHT22;1912;51.358;12.282;2023-12-07T08:45:59;2.20;1.00
3794;DHT22;1912;51.358;12.282;2023-12-07T08:48:25;2.20;1.00
3794;DHT22;1912;51.358;12.282;2023-12-07T08:50:51;2.20;1.00
3794;DHT22;1912;51.358;12.282;2023-12-07T08:53:17;2.10;1.00
3794;DHT22;1912;51.358;12.282;2023-12-07T08:55:42;2.20;1.00
3794;DHT22;1912;51.358;12.282;2023-12-07T08:58:08;2.20;1.00
3794;DHT22;1912;51.358;12.282;2023-12-07T09:00:35;2.20;1.00
3794;DHT22;1912;51.358;12.282;2023-12-07T09:03:01;2.20;1.00
3794;DHT22;1912;51.358;12.282;2023-12-07T09:05:27;2.20;1.00
3794;DHT22;1912;51.358;12.282;2023-12-07T09:07:53;2.20;1.00
3794;DHT22;1912;51.358;12.282;2023-12-07T09:10:19;2.20;1.00
3794;DHT22;1912;51.358;12.282;2023-12-07T09:12:45;2.20;1.00
3794;DHT22;1912;51.358;12.282;2023-12-07T09:15:11;2.20;1.00
3794;DHT22;1912;51.358;12.282;2023-12-07T09:17:38;2.20;1.00
3794;DHT22;1912;51.358;12.282;2023-12-07T09:20:08;2.20;1.00
3794;DHT22;1912;51.358;12.282;2023-12-07T09:22:44;2.20;1.00
3794;DHT22;1912;51.358;12.282;2023-12-07T09:25:10;2.20;1.00
3794;DHT22;1912;51.358;12.282;2023-12-07T09:27:37;2.20;1.00
3794;DHT22;1912;51.358;12.282;2023-12-07T09:30:08;2.20;1.00
3794;DHT22;1912;51.358;12.282;2023-12-07T09:32:38;2.20;1.00
3794;DHT22;1912;51.358;12.282;2023-12-07T09:35:05;2.30;1.00
3794;DHT22;1912;51.358;12.282;2023-12-07T09:37:45;2.20;1.00
3794;DHT22;1912;51.358;12.282;2023-12-07T09:40:21;2.30;1.00
3794;DHT22;1912;51.358;12.282;2023-12-07T09:42:48;2.30;1.00
3794;DHT22;1912;51.358;12.282;2023-12-07T09:45:15;2.40;1.00
3794;DHT22;1912;51.358;12.282;2023-12-07T09:47:45;2.30;1.00
3794;DHT22;1912;51.358;12.282;2023-12-07T09:50:15;2.30;1.00
3794;DHT22;1912;51.358;12.282;2023-12-07T09:52:52;2.40;1.00
3794;DHT22;1912;51.358;12.282;2023-12-07T09:55:20;2.40;1.00
3794;DHT22;1912;51.358;12.282;2023-12-07T09:57:48;2.40;1.00
3794;DHT22;1912;51.358;12.282;2023-12-07T10:00:17;2.40;1.00
3794;DHT22;1912;51.358;12.282;2023-12-07T10:02:45;2.40;1.00
3794;DHT22;1912;51.358;12.282;2023-12-07T10:05:14;2.40;1.00
3794;DHT22;1912;51.358;12.282;2023-12-07T10:07:42;2.50;1.00
3794;DHT22;1912;51.358;12.282;2023-12-07T10:10:10;2.40;1.00
3794;DHT22;1912;51.358;12.282;2023-12-07T10:12:52;2.50;1.00
3794;DHT22;1912;51.358;12.282;2023-12-07T10:15:20;2.50;1.00
3794;DHT22;1912;51.358;12.282;2023-12-07T10:17:57;2.50;1.00
3794;DHT22;1912;51.358;12.282;2023-12-07T10:20:25;2.50;1.00
3794;DHT22;1912;51.358;12.282;2023-12-07T10:23:02;2.60;1.00
3794;DHT22;1912;51.358;12.282;2023-12-07T10:25:30;2.60;1.00
3794;DHT22;1912;51.358;12.282;2023-12-07T10:27:56;2.60;1.00
3794;DHT22;1912;51.358;12.282;2023-12-07T10:30:22;2.60;1.00
3794;DHT22;1912;51.358;12.282;2023-12-07T10:32:51;2.60;1.00
3794;DHT22;1912;51.358;12.282;2023-12-07T10:35:18;2.60;1.00
3794;DHT22;1912;51.358;12.282;2023-12-07T10:37:45;2.60;1.00
3794;DHT22;1912;51.358;12.282;2023-12-07T10:40:10;2.60;1.00
3794;DHT22;1912;51.358;12.282;2023-12-07T10:42:37;2.60;1.00
3794;DHT22;1912;51.358;12.282;2023-12-07T10:45:06;2.60;1.00
3794;DHT22;1912;51.358;12.282;2023-12-07T10:47:37;2.60;1.00
3794;DHT22;1912;51.358;12.282;2023-12-07T10:50:08;2.60;1.00
3794;DHT22;1912;51.358;12.282;2023-12-07T10:52:37;2.70;1.00
3794;DHT22;1912;51.358;12.282;2023-12-07T10:55:39;2.70;1.00
3794;DHT22;1912;51.358;12.282;2023-12-07T10:58:09;2.70;1.00
3794;DHT22;1912;51.358;12.282;2023-12-07T11:00:35;2.70;1.00
3794;DHT22;1912;51.358;12.282;2023-12-07T11:03:01;2.70;1.00
3794;DHT22;1912;51.358;12.282;2023-12-07T11:05:29;2.70;1.00
3794;DHT22;1912;51.358;12.282;2023-12-07T11:08:03;2.80;1.00
3794;DHT22;1912;51.358;12.282;2023-12-07T11:10:39;2.80;1.00
3794;DHT22;1912;51.358;12.282;2023-12-07T11:13:18;2.80;1.00
3794;DHT22;1912;51.358;12.282;2023-12-07T11:15:50;2.80;1.00
3794;DHT22;1912;51.358;12.282;2023-12-07T11:18:16;2.90;1.00
3794;DHT22;1912;51.358;12.282;2023-12-07T11:20:46;2.90;1.00
3794;DHT22;1912;51.358;12.282;2023-12-07T11:23:18;2.90;1.00
3794;DHT22;1912;51.358;12.282;2023-12-07T11:25:46;2.90;1.00
3794;DHT22;1912;51.358;12.282;2023-12-07T11:28:13;3.00;1.00
3794;DHT22;1912;51.358;12.282;2023-12-07T11:30:42;3.00;1.00
3794;DHT22;1912;51.358;12.282;2023-12-07T11:33:09;3.00;1.00
3794;DHT22;1912;51.358;12.282;2023-12-07T11:36:07;3.10;1.00
3794;DHT22;1912;51.358;12.282;2023-12-07T11:38:36;3.10;1.00
3794;DHT22;1912;51.358;12.282;2023-12-07T11:41:02;3.10;1.00
3794;DHT22;1912;51.358;12.282;2023-12-07T11:46:00;3.20;1.00
3794;DHT22;1912;51.358;12.282;2023-12-07T11:48:27;3.20;1.00
3794;DHT22;1912;51.358;12.282;2023-12-07T11:51:02;3.20;1.00
3794;DHT22;1912;51.358;12.282;2023-12-07T11:53:29;3.20;1.00
3794;DHT22;1912;51.358;12.282;2023-12-07T11:56:07;3.30;1.00
3794;DHT22;1912;51.358;12.282;2023-12-07T11:58:35;3.30;1.00
3794;DHT22;1912;51.358;12.282;2023-12-07T12:01:02;3.30;1.00
3794;DHT22;1912;51.358;12.282;2023-12-07T12:03:29;3.30;1.00
3794;DHT22;1912;51.358;12.282;2023-12-07T12:05:57;3.30;1.00
3794;DHT22;1912;51.358;12.282;2023-12-07T12:08:23;3.30;1.00
3794;DHT22;1912;51.358;12.282;2023-12-07T12:10:53;3.40;1.00
3794;DHT22;1912;51.358;12.282;2023-12-07T12:13:27;3.40;1.00
3794;DHT22;1912;51.358;12.282;2023-12-07T12:15:55;3.50;1.00
3794;DHT22;1912;51.358;12.282;2023-12-07T12:18:21;3.50;1.00
3794;DHT22;1912;51.358;12.282;2023-12-07T12:20:49;3.50;1.00
3794;DHT22;1912;51.358;12.282;2023-12-07T12:23:15;3.50;1.00
3794;DHT22;1912;51.358;12.282;2023-12-07T12:25:42;3.50;1.00
3794;DHT22;1912;51.358;12.282;2023-12-07T12:28:08;3.50;1.00
3794;DHT22;1912;51.358;12.282;2023-12-07T12:30:35;3.60;1.00
3794;DHT22;1912;51.358;12.282;2023-12-07T12:33:01;3.60;1.00
3794;DHT22;1912;51.358;12.282;2023-12-07T12:35:30;3.60;1.00
3794;DHT22;1912;51.358;12.282;2023-12-07T12:37:56;3.70;1.00
3794;DHT22;1912;51.358;12.282;2023-12-07T12:40:22;3.70;1.00
3794;DHT22;1912;51.358;12.282;2023-12-07T12:42:51;3.70;1.00
3794;DHT22;1912;51.358;12.282;2023-12-07T12:45:18;3.80;1.00
3794;DHT22;1912;51.358;12.282;2023-12-07T12:47:47;3.70;1.00
3794;DHT22;1912;51.358;12.282;2023-12-07T12:50:40;3.80;1.00
3794;DHT22;1912;51.358;12.282;2023-12-07T12:53:08;3.80;1.00
3794;DHT22;1912;51.358;12.282;2023-12-07T12:55:36;3.80;1.00
3794;DHT22;1912;51.358;12.282;2023-12-07T12:58:05;3.90;1.00
3794;DHT22;1912;51.358;12.282;2023-12-07T13:00:32;3.90;1.00
3794;DHT22;1912;51.358;12.282;2023-12-07T13:03:03;4.00;1.00
3794;DHT22;1912;51.358;12.282;2023-12-07T13:05:30;4.00;1.00
3794;DHT22;1912;51.358;12.282;2023-12-07T13:07:57;4.00;1.00
3794;DHT22;1912;51.358;12.282;2023-12-07T13:10:25;4.00;1.00
3794;DHT22;1912;51.358;12.282;2023-12-07T13:12:51;4.00;1.00
3794;DHT22;1912;51.358;12.282;2023-12-07T13:15:16;4.00;1.00
3794;DHT22;1912;51.358;12.282;2023-12-07T13:17:42;4.00;1.00
3794;DHT22;1912;51.358;12.282;2023-12-07T13:20:09;4.00;1.00
3794;DHT22;1912;51.358;12.282;2023-12-07T13:22:41;4.00;1.00
3794;DHT22;1912;51.358;12.282;2023-12-07T13:25:09;4.00;1.00
3794;DHT22;1912;51.358;12.282;2023-12-07T13:27:35;4.00;1.00
3794;DHT22;1912;51.358;12.282;2023-12-07T13:30:02;3.90;1.00
3794;DHT22;1912;51.358;12.282;2023-12-07T13:32:32;4.00;1.00
3794;DHT22;1912;51.358;12.282;2023-12-07T13:34:59;4.00;1.00
3794;DHT22;1912;51.358;12.282;2023-12-07T13:37:25;4.10;1.00
3794;DHT22;1912;51.358;12.282;2023-12-07T13:39:51;4.00;1.00
3794;DHT22;1912;51.358;12.282;2023-12-07T13:42:23;4.00;1.00
3794;DHT22;1912;51.358;12.282;2023-12-07T13:44:55;4.10;1.00
3794;DHT22;1912;51.358;12.282;2023-12-07T13:47:25;4.10;1.00
3794;DHT22;1912;51.358;12.282;2023-12-07T13:49:57;4.00;1.00
3794;DHT22;1912;51.358;12.282;2023-12-07T13:52:24;4.00;1.00
3794;DHT22;1912;51.358;12.282;2023-12-07T13:54:50;4.00;1.00
3794;DHT22;1912;51.358;12.282;2023-12-07T13:57:16;4.00;1.00
3794;DHT22;1912;51.358;12.282;2023-12-07T13:59:42;4.00;1.00
3794;DHT22;1912;51.358;12.282;2023-12-07T14:02:07;3.90;1.00
3794;DHT22;1912;51.358;12.282;2023-12-07T14:04:33;3.90;1.00
3794;DHT22;1912;51.358;12.282;2023-12-07T14:07:13;3.90;1.00
3794;DHT22;1912;51.358;12.282;2023-12-07T14:09:42;3.90;1.00
3794;DHT22;1912;51.358;12.282;2023-12-07T14:12:09;3.80;1.00
3794;DHT22;1912;51.358;12.282;2023-12-07T14:14:39;3.80;1.00
3794;DHT22;1912;51.358;12.282;2023-12-07T14:17:05;3.80;1.00
3794;DHT22;1912;51.358;12.282;2023-12-07T14:19:31;3.80;1.00
3794;DHT22;1912;51.358;12.282;2023-12-07T14:21:56;3.80;1.00
3794;DHT22;1912;51.358;12.282;2023-12-07T14:24:26;3.80;1.00
3794;DHT22;1912;51.358;12.282;2023-12-07T14:26:53;3.80;1.00
3794;DHT22;1912;51.358;12.282;2023-12-07T14:29:19;3.70;1.00
3794;DHT22;1912;51.358;12.282;2023-12-07T14:31:47;3.70;1.00
3794;DHT22;1912;51.358;12.282;2023-12-07T14:34:14;3.70;1.00
3794;DHT22;1912;51.358;12.282;2023-12-07T14:36:41;3.60;1.00
3794;DHT22;1912;51.358;12.282;2023-12-07T14:39:09;3.60;1.00
3794;DHT22;1912;51.358;12.282;2023-12-07T14:41:35;3.60;1.00
3794;DHT22;1912;51.358;12.282;2023-12-07T14:44:02;3.60;1.00
3794;DHT22;1912;51.358;12.282;2023-12-07T14:46:27;3.50;1.00
3794;DHT22;1912;51.358;12.282;2023-12-07T14:48:53;3.60;1.00
3794;DHT22;1912;51.358;12.282;2023-12-07T14:51:19;3.50;1.00
3794;DHT22;1912;51.358;12.282;2023-12-07T14:53:48;3.50;1.00
3794;DHT22;1912;51.358;12.282;2023-12-07T14:56:13;3.50;1.00
3794;DHT22;1912;51.358;12.282;2023-12-07T14:58:39;3.50;1.00
3794;DHT22;1912;51.358;12.282;2023-12-07T15:01:06;3.50;1.00
3794;DHT22;1912;51.358;12.282;2023-12-07T15:03:32;3.50;1.00
3794;DHT22;1912;51.358;12.282;2023-12-07T15:05:57;3.50;1.00
3794;DHT22;1912;51.358;12.282;2023-12-07T15:08:23;3.50;1.00
3794;DHT22;1912;51.358;12.282;2023-12-07T15:10:49;3.50;1.00
3794;DHT22;1912;51.358;12.282;2023-12-07T15:13:18;3.60;1.00
3794;DHT22;1912;51.358;12.282;2023-12-07T15:15:44;3.50;1.00
3794;DHT22;1912;51.358;12.282;2023-12-07T15:18:10;3.40;1.00
3794;DHT22;1912;51.358;12.282;2023-12-07T15:20:36;3.30;1.00
3794;DHT22;1912;51.358;12.282;2023-12-07T15:23:02;3.20;1.00
3794;DHT22;1912;51.358;12.282;2023-12-07T15:25:28;3.00;1.00
3794;DHT22;1912;51.358;12.282;2023-12-07T15:27:54;3.10;1.00
3794;DHT22;1912;51.358;12.282;2023-12-07T15:30:20;3.00;1.00
3794;DHT22;1912;51.358;12.282;2023-12-07T15:32:49;2.90;1.00
3794;DHT22;1912;51.358;12.282;2023-12-07T15:35:15;2.80;1.00
3794;DHT22;1912;51.358;12.282;2023-12-07T15:37:42;2.70;1.00
3794;DHT22;1912;51.358;12.282;2023-12-07T15:40:08;2.60;1.00
3794;DHT22;1912;51.358;12.282;2023-12-07T15:42:38;2.50;1.00
3794;DHT22;1912;51.358;12.282;2023-12-07T15:45:08;2.40;1.00
3794;DHT22;1912;51.358;12.282;2023-12-07T15:47:34;2.40;1.00
3794;DHT22;1912;51.358;12.282;2023-12-07T15:50:00;2.40;1.00
3794;DHT22;1912;51.358;12.282;2023-12-07T15:52:26;2.30;1.00
3794;DHT22;1912;51.358;12.282;2023-12-07T15:54:52;2.30;1.00
3794;DHT22;1912;51.358;12.282;2023-12-07T15:57:17;2.20;1.00
3794;DHT22;1912;51.358;12.282;2023-12-07T15:59:43;2.30;1.00
3794;DHT22;1912;51.358;12.282;2023-12-07T16:02:09;2.20;1.00
3794;DHT22;1912;51.358;12.282;2023-12-07T16:04:36;2.20;1.00
3794;DHT22;1912;51.358;12.282;2023-12-07T16:07:04;2.20;1.00
3794;DHT22;1912;51.358;12.282;2023-12-07T16:09:31;2.30;1.00
3794;DHT22;1912;51.358;12.282;2023-12-07T16:11:58;2.30;1.00
3794;DHT22;1912;51.358;12.282;2023-12-07T16:14:24;2.40;1.00
3794;DHT22;1912;51.358;12.282;2023-12-07T16:16:50;2.40;1.00
3794;DHT22;1912;51.358;12.282;2023-12-07T16:19:16;2.40;1.00
3794;DHT22;1912;51.358;12.282;2023-12-07T16:21:41;2.40;1.00
3794;DHT22;1912;51.358;12.282;2023-12-07T16:24:08;2.40;1.00
3794;DHT22;1912;51.358;12.282;2023-12-07T16:26:39;2.40;1.00
3794;DHT22;1912;51.358;12.282;2023-12-07T16:29:05;2.40;1.00
3794;DHT22;1912;51.358;12.282;2023-12-07T16:31:31;2.40;1.00
3794;DHT22;1912;51.358;12.282;2023-12-07T16:33:56;2.40;1.00
3794;DHT22;1912;51.358;12.282;2023-12-07T16:36:22;2.40;1.00
3794;DHT22;1912;51.358;12.282;2023-12-07T16:38:48;2.40;1.00
3794;DHT22;1912;51.358;12.282;2023-12-07T16:41:14;2.40;1.00
3794;DHT22;1912;51.358;12.282;2023-12-07T16:43:40;2.40;1.00
3794;DHT22;1912;51.358;12.282;2023-12-07T16:46:06;2.40;1.00
3794;DHT22;1912;51.358;12.282;2023-12-07T16:48:35;2.40;1.00
3794;DHT22;1912;51.358;12.282;2023-12-07T16:51:02;2.40;1.00
3794;DHT22;1912;51.358;12.282;2023-12-07T16:53:31;2.40;1.00
3794;DHT22;1912;51.358;12.282;2023-12-07T16:55:59;2.50;1.00
3794;DHT22;1912;51.358;12.282;2023-12-07T16:58:24;2.40;1.00
3794;DHT22;1912;51.358;12.282;2023-12-07T17:00:50;2.40;1.00
3794;DHT22;1912;51.358;12.282;2023-12-07T17:03:16;2.30;1.00
3794;DHT22;1912;51.358;12.282;2023-12-07T17:05:42;2.40;1.00
3794;DHT22;1912;51.358;12.282;2023-12-07T17:08:10;2.40;1.00
3794;DHT22;1912;51.358;12.282;2023-12-07T17:10:36;2.40;1.00
3794;DHT22;1912;51.358;12.282;2023-12-07T17:13:01;2.40;1.00
3794;DHT22;1912;51.358;12.282;2023-12-07T17:15:27;2.40;1.00
3794;DHT22;1912;51.358;12.282;2023-12-07T17:17:53;2.40;1.00
3794;DHT22;1912;51.358;12.282;2023-12-07T17:20:18;2.40;1.00
3794;DHT22;1912;51.358;12.282;2023-12-07T17:22:44;2.40;1.00
3794;DHT22;1912;51.358;12.282;2023-12-07T17:25:10;2.30;1.00
3794;DHT22;1912;51.358;12.282;2023-12-07T17:27:36;2.30;1.00
3794;DHT22;1912;51.358;12.282;2023-12-07T17:30:02;2.40;1.00
3794;DHT22;1912;51.358;12.282;2023-12-07T17:32:28;2.40;1.00
3794;DHT22;1912;51.358;12.282;2023-12-07T17:34:54;2.40;1.00
3794;DHT22;1912;51.358;12.282;2023-12-07T17:37:20;2.40;1.00
3794;DHT22;1912;51.358;12.282;2023-12-07T17:39:46;2.40;1.00
3794;DHT22;1912;51.358;12.282;2023-12-07T17:42:12;2.40;1.00
3794;DHT22;1912;51.358;12.282;2023-12-07T17:44:38;2.40;1.00
3794;DHT22;1912;51.358;12.282;2023-12-07T17:47:03;2.40;1.00
3794;DHT22;1912;51.358;12.282;2023-12-07T17:49:29;2.40;1.00
3794;DHT22;1912;51.358;12.282;2023-12-07T17:51:55;2.40;1.00
3794;DHT22;1912;51.358;12.282;2023-12-07T17:54:21;2.50;1.00
3794;DHT22;1912;51.358;12.282;2023-12-07T17:56:50;2.50;1.00
3794;DHT22;1912;51.358;12.282;2023-12-07T17:59:16;2.50;1.00
3794;DHT22;1912;51.358;12.282;2023-12-07T18:01:42;2.60;1.00
3794;DHT22;1912;51.358;12.282;2023-12-07T18:04:08;2.90;1.00
3794;DHT22;1912;51.358;12.282;2023-12-07T18:06:35;2.80;1.00
3794;DHT22;1912;51.358;12.282;2023-12-07T18:09:00;2.80;1.00
3794;DHT22;1912;51.358;12.282;2023-12-07T18:11:26;2.70;1.00
3794;DHT22;1912;51.358;12.282;2023-12-07T18:13:52;2.70;1.00
3794;DHT22;1912;51.358;12.282;2023-12-07T18:16:19;2.80;1.00
3794;DHT22;1912;51.358;12.282;2023-12-07T18:18:45;2.70;1.00
3794;DHT22;1912;51.358;12.282;2023-12-07T18:21:12;2.70;1.00
3794;DHT22;1912;51.358;12.282;2023-12-07T18:23:38;2.70;1.00
3794;DHT22;1912;51.358;12.282;2023-12-07T18:26:07;2.70;1.00
3794;DHT22;1912;51.358;12.282;2023-12-07T18:28:34;2.70;1.00
3794;DHT22;1912;51.358;12.282;2023-12-07T18:31:00;2.70;1.00
3794;DHT22;1912;51.358;12.282;2023-12-07T18:33:25;2.70;1.00
3794;DHT22;1912;51.358;12.282;2023-12-07T18:35:51;2.70;1.00
3794;DHT22;1912;51.358;12.282;2023-12-07T18:38:17;2.60;1.00
3794;DHT22;1912;51.358;12.282;2023-12-07T18:40:42;2.70;1.00
3794;DHT22;1912;51.358;12.282;2023-12-07T18:43:09;2.60;1.00
3794;DHT22;1912;51.358;12.282;2023-12-07T18:45:36;2.60;1.00
3794;DHT22;1912;51.358;12.282;2023-12-07T18:48:03;2.60;1.00
3794;DHT22;1912;51.358;12.282;2023-12-07T18:50:29;2.60;1.00
3794;DHT22;1912;51.358;12.282;2023-12-07T18:52:55;2.60;1.00
3794;DHT22;1912;51.358;12.282;2023-12-07T18:55:21;2.60;1.00
3794;DHT22;1912;51.358;12.282;2023-12-07T18:57:47;2.60;1.00
3794;DHT22;1912;51.358;12.282;2023-12-07T19:00:14;2.60;1.00
3794;DHT22;1912;51.358;12.282;2023-12-07T19:02:41;2.60;1.00
3794;DHT22;1912;51.358;12.282;2023-12-07T19:05:08;2.50;1.00
3794;DHT22;1912;51.358;12.282;2023-12-07T19:07:34;2.50;1.00
3794;DHT22;1912;51.358;12.282;2023-12-07T19:10:00;2.50;1.00
3794;DHT22;1912;51.358;12.282;2023-12-07T19:12:25;2.40;1.00
3794;DHT22;1912;51.358;12.282;2023-12-07T19:14:51;2.40;1.00
3794;DHT22;1912;51.358;12.282;2023-12-07T19:17:17;2.40;1.00
3794;DHT22;1912;51.358;12.282;2023-12-07T19:19:42;2.30;1.00
3794;DHT22;1912;51.358;12.282;2023-12-07T19:22:08;2.20;1.00
3794;DHT22;1912;51.358;12.282;2023-12-07T19:24:33;2.20;1.00
3794;DHT22;1912;51.358;12.282;2023-12-07T19:26:59;2.10;1.00
3794;DHT22;1912;51.358;12.282;2023-12-07T19:29:28;2.00;1.00
3794;DHT22;1912;51.358;12.282;2023-12-07T19:31:53;2.00;1.00
3794;DHT22;1912;51.358;12.282;2023-12-07T19:34:19;2.00;1.00
3794;DHT22;1912;51.358;12.282;2023-12-07T19:36:47;1.90;1.00
3794;DHT22;1912;51.358;12.282;2023-12-07T19:39:14;1.90;1.00
3794;DHT22;1912;51.358;12.282;2023-12-07T19:41:43;1.80;1.00
3794;DHT22;1912;51.358;12.282;2023-12-07T19:44:12;1.70;1.00
3794;DHT22;1912;51.358;12.282;2023-12-07T19:46:39;1.70;1.00
3794;DHT22;1912;51.358;12.282;2023-12-07T19:49:05;1.60;1.00
3794;DHT22;1912;51.358;12.282;2023-12-07T19:51:31;1.60;1.00
3794;DHT22;1912;51.358;12.282;2023-12-07T19:53:58;1.60;1.00
3794;DHT22;1912;51.358;12.282;2023-12-07T19:56:32;1.60;1.00
3794;DHT22;1912;51.358;12.282;2023-12-07T19:58:59;1.50;1.00
3794;DHT22;1912;51.358;12.282;2023-12-07T20:01:25;1.50;1.00
3794;DHT22;1912;51.358;12.282;2023-12-07T20:03:53;1.50;1.00
3794;DHT22;1912;51.358;12.282;2023-12-07T20:06:19;1.40;1.00
3794;DHT22;1912;51.358;12.282;2023-12-07T20:08:45;1.40;1.00
3794;DHT22;1912;51.358;12.282;2023-12-07T20:11:16;1.40;1.00
3794;DHT22;1912;51.358;12.282;2023-12-07T20:13:45;1.40;1.00
3794;DHT22;1912;51.358;12.282;2023-12-07T20:16:18;1.40;1.00
3794;DHT22;1912;51.358;12.282;2023-12-07T20:18:45;1.30;1.00
3794;DHT22;1912;51.358;12.282;2023-12-07T20:21:11;1.40;1.00
3794;DHT22;1912;51.358;12.282;2023-12-07T20:23:38;1.30;1.00
3794;DHT22;1912;51.358;12.282;2023-12-07T20:26:08;1.30;1.00
3794;DHT22;1912;51.358;12.282;2023-12-07T20:28:35;1.30;1.00
3794;DHT22;1912;51.358;12.282;2023-12-07T20:31:03;1.20;1.00
3794;DHT22;1912;51.358;12.282;2023-12-07T20:33:29;1.20;1.00
3794;DHT22;1912;51.358;12.282;2023-12-07T20:35:54;1.20;1.00
3794;DHT22;1912;51.358;12.282;2023-12-07T20:38:20;1.20;1.00
3794;DHT22;1912;51.358;12.282;2023-12-07T20:40:46;1.20;1.00
3794;DHT22;1912;51.358;12.282;2023-12-07T20:43:11;1.10;1.00
3794;DHT22;1912;51.358;12.282;2023-12-07T20:45:38;1.00;1.00
3794;DHT22;1912;51.358;12.282;2023-12-07T20:48:04;1.00;1.00
3794;DHT22;1912;51.358;12.282;2023-12-07T20:50:29;1.00;1.00
3794;DHT22;1912;51.358;12.282;2023-12-07T20:52:55;1.00;1.00
3794;DHT22;1912;51.358;12.282;2023-12-07T20:55:21;0.90;1.00
